createdAt,value
2019-01-25T00:00:15.049Z,94972.86
2019-01-25T00:05:12.165Z,94968.73
2019-01-25T00:10:09.505Z,94968.83
2019-01-25T00:15:10.569Z,94963.86
2019-01-25T00:20:10.815Z,94969.83
2019-01-25T00:25:08.607Z,94969.05
2019-01-25T00:30:18.423Z,94970.95
2019-01-25T00:35:15.336Z,94969.38
2019-01-25T00:40:18.519Z,94976.16
2019-01-25T00:45:15.735Z,94976.06
2019-01-25T00:50:16.883Z,94972.83
2019-01-25T00:55:13.782Z,94972.66
2019-01-25T01:00:25.742Z,94975.25
2019-01-25T01:05:23.143Z,94970.50
2019-01-25T01:10:20.803Z,94963.59
2019-01-25T01:15:18.225Z,94964.41
2019-01-25T01:20:17.886Z,94968.38
2019-01-25T01:25:14.777Z,94963.89
2019-01-25T01:30:21.173Z,94967.34
2019-01-25T01:35:18.053Z,94964.09
2019-01-25T01:40:21.970Z,94955.02
2019-01-25T01:45:17.425Z,94958.53
2019-01-25T01:50:16.857Z,94953.39
2019-01-25T01:55:13.911Z,94951.63
2019-01-25T02:00:18.105Z,94944.95
2019-01-25T02:05:15.009Z,94949.29
2019-01-25T02:10:29.338Z,94946.98
2019-01-25T02:15:23.163Z,94946.35
2019-01-25T02:20:23.424Z,94950.33
2019-01-25T02:25:20.416Z,94946.17
2019-01-25T02:30:20.373Z,94939.27
2019-01-25T02:35:17.265Z,94941.13
2019-01-25T02:40:20.013Z,94937.63
2019-01-25T02:45:16.950Z,94933.28
2019-01-25T02:50:16.495Z,94937.92
2019-01-25T02:55:14.888Z,94931.13
2019-01-25T03:00:20.653Z,94933.34
2019-01-25T03:05:19.645Z,94935.72
2019-01-25T03:10:19.281Z,94933.81
2019-01-25T03:15:19.294Z,94932.45
2019-01-25T03:20:17.154Z,94930.66
2019-01-25T03:25:20.871Z,94929.70
2019-01-25T03:30:20.918Z,94928.31
2019-01-25T03:35:20.989Z,94926.13
2019-01-25T03:40:21.064Z,94919.78
2019-01-25T03:45:19.373Z,94924.50
2019-01-25T03:50:23.435Z,94921.30
2019-01-25T03:55:20.936Z,94909.14
2019-01-25T04:00:21.929Z,94926.20
2019-01-25T04:05:18.947Z,94927.70
2019-01-25T04:10:28.521Z,94927.69
2019-01-25T04:15:30.775Z,94925.92
2019-01-25T04:20:28.971Z,94935.30
2019-01-25T04:25:25.901Z,94935.80
2019-01-25T04:30:28.614Z,94939.56
2019-01-25T04:35:25.659Z,94937.27
2019-01-25T04:40:22.608Z,94935.14
2019-01-25T04:45:21.546Z,94937.39
2019-01-25T04:50:22.995Z,94940.66
2019-01-25T04:55:25.291Z,94944.64
2019-01-25T05:00:22.889Z,94942.88
2019-01-25T05:05:20.062Z,94942.95
2019-01-25T05:10:17.053Z,94948.98
2019-01-25T05:15:13.954Z,94945.11
2019-01-25T05:20:10.906Z,94950.30
2019-01-25T05:25:07.822Z,94944.58
2019-01-25T05:30:10.210Z,94948.84
2019-01-25T05:35:07.291Z,94950.59
2019-01-25T05:40:08.122Z,94944.20
2019-01-25T05:45:12.845Z,94951.20
2019-01-25T05:50:12.263Z,94955.80
2019-01-25T05:55:21.421Z,94964.92
2019-01-25T06:00:22.968Z,94960.89
2019-01-25T06:05:20.856Z,94972.81
2019-01-25T06:10:17.774Z,94976.78
2019-01-25T06:15:14.737Z,94962.61
2019-01-25T06:20:12.129Z,94970.25
2019-01-25T06:25:09.240Z,94979.16
2019-01-25T06:30:12.925Z,94979.53
2019-01-25T06:35:11.249Z,94985.13
2019-01-25T06:40:13.450Z,94977.95
2019-01-25T06:45:11.177Z,94987.80
2019-01-25T06:50:12.565Z,95000.89
2019-01-25T06:55:09.790Z,95005.86
2019-01-25T07:00:17.216Z,95017.36
2019-01-25T07:05:14.161Z,95015.70
2019-01-25T07:10:15.782Z,95018.61
2019-01-25T07:15:15.075Z,95031.52
2019-01-25T07:20:14.550Z,95026.13
2019-01-25T07:25:13.874Z,95039.96
2019-01-25T07:30:14.944Z,95047.91
2019-01-25T07:35:12.037Z,95054.16
2019-01-25T07:40:10.429Z,95060.94
2019-01-25T07:45:12.989Z,95062.39
2019-01-25T07:50:11.318Z,95069.69
2019-01-25T07:55:11.004Z,95064.34
2019-01-25T08:00:15.786Z,95060.10
2019-01-25T08:05:12.961Z,95060.36
2019-01-25T08:10:21.185Z,95067.06
2019-01-25T08:15:21.377Z,95073.77
2019-01-25T08:20:18.630Z,95080.26
2019-01-25T08:25:15.732Z,95081.52
2019-01-25T08:30:24.368Z,95077.68
2019-01-25T08:35:21.645Z,95068.27
2019-01-25T08:40:18.832Z,95070.91
2019-01-25T08:45:17.301Z,95079.38
2019-01-25T08:50:26.041Z,95084.48
2019-01-25T08:55:22.964Z,95094.20
2019-01-25T09:00:24.443Z,95099.16
2019-01-25T09:05:21.628Z,95100.42
2019-01-25T09:10:22.975Z,95112.25
2019-01-25T09:15:29.656Z,95118.60
2019-01-25T09:20:26.806Z,95121.97
2019-01-25T09:25:23.768Z,95106.83
2019-01-25T09:30:24.888Z,95107.78
2019-01-25T09:35:21.949Z,95098.89
2019-01-25T09:40:23.830Z,95104.53
2019-01-25T09:45:21.380Z,95107.17
2019-01-25T09:50:21.557Z,95110.16
2019-01-25T09:55:24.850Z,95101.56
2019-01-25T10:00:30.166Z,95107.16
2019-01-25T10:05:27.818Z,95114.80
2019-01-25T10:10:24.775Z,95118.33
2019-01-25T10:15:28.027Z,95116.62
2019-01-25T10:20:25.050Z,95123.87
2019-01-25T10:25:22.029Z,95135.16
2019-01-25T10:30:26.981Z,95127.07
2019-01-25T10:35:23.882Z,95146.32
2019-01-25T10:40:22.349Z,95160.34
2019-01-25T10:45:29.185Z,95164.98
2019-01-25T10:50:26.086Z,95169.47
2019-01-25T10:55:23.074Z,95180.70
2019-01-25T11:00:22.339Z,95175.11
2019-01-25T11:05:22.782Z,95183.64
2019-01-25T11:10:19.814Z,95179.62
2019-01-25T11:15:22.500Z,95183.23
2019-01-25T11:20:22.716Z,95179.62
2019-01-25T11:25:26.817Z,95191.59
2019-01-25T11:30:23.731Z,95180.05
2019-01-25T11:35:20.793Z,95179.22
2019-01-25T11:40:22.095Z,95173.97
2019-01-25T11:45:19.054Z,95180.17
2019-01-25T11:50:20.246Z,95190.46
2019-01-25T11:55:18.185Z,95207.61
2019-01-25T12:00:24.046Z,95197.05
2019-01-25T12:05:23.368Z,95192.23
2019-01-25T12:10:29.888Z,95195.00
2019-01-25T12:15:27.795Z,95192.61
2019-01-25T12:20:27.633Z,95191.45
2019-01-25T12:25:24.572Z,95187.17
2019-01-25T12:30:26.064Z,95183.67
2019-01-25T12:35:24.579Z,95191.06
2019-01-25T12:40:21.630Z,95192.69
2019-01-25T12:45:24.924Z,95194.03
2019-01-25T12:50:26.015Z,95190.33
2019-01-25T12:55:23.963Z,95189.54
2019-01-25T13:00:23.571Z,95195.39
2019-01-25T13:05:21.595Z,95213.48
2019-01-25T13:10:24.668Z,95228.81
2019-01-25T13:15:21.985Z,95235.13
2019-01-25T13:20:25.159Z,95242.88
2019-01-25T13:25:22.311Z,95242.72
2019-01-25T13:30:28.607Z,95237.95
2019-01-25T13:35:25.618Z,95233.84
2019-01-25T13:40:24.953Z,95234.50
2019-01-25T13:45:22.701Z,95247.48
2019-01-25T13:50:24.386Z,95248.34
2019-01-25T13:55:21.380Z,95241.14
2019-01-25T14:00:32.986Z,95247.83
2019-01-25T14:05:31.002Z,95248.05
2019-01-25T14:10:33.856Z,95228.95
2019-01-25T14:15:30.749Z,95236.25
2019-01-25T14:20:32.371Z,95243.93
2019-01-25T14:25:29.774Z,95247.66
2019-01-25T14:30:36.847Z,95249.12
2019-01-25T14:35:33.965Z,95272.94
2019-01-25T14:40:30.927Z,95286.28
2019-01-25T14:45:28.025Z,95281.45
2019-01-25T14:50:28.615Z,95277.94
2019-01-25T14:55:25.521Z,95294.48
2019-01-25T15:00:22.466Z,95286.64
2019-01-25T15:05:19.764Z,95291.30
2019-01-25T15:10:19.944Z,95282.48
2019-01-25T15:15:17.024Z,95275.63
2019-01-25T15:20:17.909Z,95289.00
2019-01-25T15:25:16.016Z,95325.94
2019-01-25T15:30:19.732Z,95310.22
2019-01-25T15:35:19.004Z,95296.02
2019-01-25T15:40:18.590Z,95319.95
2019-01-25T15:45:20.213Z,95343.09
2019-01-25T15:50:24.031Z,95330.25
2019-01-25T15:55:21.254Z,95361.86
2019-01-25T16:00:21.926Z,95354.91
2019-01-25T16:05:20.399Z,95369.85
2019-01-25T16:10:22.233Z,95352.14
2019-01-25T16:15:25.415Z,95387.24
2019-01-25T16:20:22.524Z,95397.37
2019-01-25T16:25:27.338Z,95392.73
2019-01-25T16:30:27.732Z,95387.72
2019-01-25T16:35:24.864Z,95392.73
2019-01-25T16:40:28.370Z,95393.84
2019-01-25T16:45:30.775Z,95392.53
2019-01-25T16:50:27.717Z,95402.30
2019-01-25T16:55:24.670Z,95390.11
2019-01-25T17:00:36.909Z,95403.22
2019-01-25T17:05:34.242Z,95403.48
2019-01-25T17:10:31.741Z,95401.62
2019-01-25T17:15:28.970Z,95388.64
2019-01-25T17:20:27.827Z,95387.63
2019-01-25T17:25:25.415Z,95391.13
2019-01-25T17:30:27.824Z,95398.41
2019-01-25T17:35:24.828Z,95400.19
2019-01-25T17:40:25.705Z,95395.86
2019-01-25T17:45:22.621Z,95395.30
2019-01-25T17:50:20.150Z,95403.61
2019-01-25T17:55:17.515Z,95396.78
2019-01-25T18:00:23.936Z,95388.48
2019-01-25T18:05:20.957Z,95392.00
2019-01-25T18:10:21.935Z,95385.55
2019-01-25T18:15:19.293Z,95385.45
2019-01-25T18:20:18.836Z,95389.81
2019-01-25T18:25:38.846Z,95383.02
2019-01-25T18:30:50.023Z,95383.76
2019-01-25T18:35:47.065Z,95389.02
2019-01-25T18:40:44.032Z,95396.11
2019-01-25T18:45:40.987Z,95396.66
2019-01-25T18:50:37.921Z,95404.67
2019-01-25T18:55:34.822Z,95402.05
2019-01-25T19:00:32.005Z,95401.86
2019-01-25T19:05:28.900Z,95403.17
2019-01-25T19:10:29.188Z,95409.39
2019-01-25T19:15:29.309Z,95426.47
2019-01-25T19:20:26.502Z,95420.66
2019-01-25T19:25:23.545Z,95423.66
2019-01-25T19:30:37.249Z,95424.48
2019-01-25T19:35:34.698Z,95418.41
2019-01-25T19:40:34.056Z,95424.33
2019-01-25T19:45:30.962Z,95429.50
2019-01-25T19:50:27.916Z,95426.02
2019-01-25T19:55:30.810Z,95431.44
2019-01-25T20:00:43.653Z,95430.72
2019-01-25T20:05:41.089Z,95436.84
2019-01-25T20:10:38.044Z,95435.39
2019-01-25T20:15:34.958Z,95432.79
2019-01-25T20:20:36.101Z,95432.12
2019-01-25T20:25:33.430Z,95433.97
2019-01-25T20:30:32.639Z,95430.25
2019-01-25T20:35:32.940Z,95424.75
2019-01-25T20:40:30.027Z,95416.84
2019-01-25T20:45:36.396Z,95427.40
2019-01-25T20:50:35.434Z,95416.77
2019-01-25T20:55:32.347Z,95417.53
2019-01-25T21:00:33.273Z,95419.45
2019-01-25T21:05:30.521Z,95420.58
2019-01-25T21:10:27.698Z,95410.39
2019-01-25T21:15:26.834Z,95411.88
2019-01-25T21:20:40.180Z,95409.12
2019-01-25T21:25:37.400Z,95404.63
2019-01-25T21:30:36.179Z,95411.33
2019-01-25T21:35:33.077Z,95408.62
2019-01-25T21:40:32.536Z,95405.17
2019-01-25T21:45:32.531Z,95397.97
2019-01-25T21:50:36.919Z,95394.20
2019-01-25T21:55:33.834Z,95386.87
2019-01-25T22:00:33.594Z,95382.02
2019-01-25T22:05:30.573Z,95387.50
2019-01-25T22:10:33.966Z,95383.06
2019-01-25T22:15:31.260Z,95378.27
2019-01-25T22:20:29.222Z,95377.08
2019-01-25T22:25:26.216Z,95365.39
2019-01-25T22:30:26.268Z,95364.09
2019-01-25T22:35:23.776Z,95366.13
2019-01-25T22:40:24.681Z,95357.02
2019-01-25T22:45:24.674Z,95355.40
2019-01-25T22:50:27.665Z,95358.00
2019-01-25T22:55:25.056Z,95347.44
2019-01-25T23:00:49.130Z,95345.03
2019-01-25T23:06:11.441Z,95340.41
2019-01-25T23:11:08.456Z,95334.91
2019-01-25T23:16:06.403Z,95331.28
2019-01-25T23:21:03.644Z,95329.73
2019-01-25T23:26:00.600Z,95329.16
2019-01-25T23:30:57.529Z,95327.66
2019-01-25T23:35:56.100Z,95331.91
2019-01-25T23:40:53.029Z,95322.48
2019-01-25T23:45:49.971Z,95325.26
2019-01-25T23:50:46.979Z,95315.42
2019-01-25T23:55:44.373Z,95304.63
